Time;durP1;ratioP1;P1;durP2;ratioP2;P2;SDS_P1;SDS_P2;PMS_P1;PMS_P2;Temp;Humidity;BMP_temperature;BMP_pressure;BME280_temperature;BME280_humidity;BME280_pressure;Samples;Min_cycle;Max_cycle;Signal;HPM_P1;HPM_P2
2021/09/14 00:00:36;;;;;;;;;6.25;5.75;;;;;24.20;48.61;100409.47;5078382;27;45477;-81
2021/09/14 00:03:02;;;;;;;;;7.00;6.00;;;;;24.17;48.73;100406.34;5082824;27;47423;-81
2021/09/14 00:05:27;;;;;;;;;6.00;6.00;;;;;24.11;48.98;100399.13;5083356;27;45744;-84
2021/09/14 00:11:14;;;;;;;;;7.50;7.00;;;;;24.06;49.17;100417.66;5076865;28;45648;-83
2021/09/14 00:13:39;;;;;;;;;5.00;4.75;;;;;24.05;49.16;100418.66;5077077;27;45423;-83
2021/09/14 00:16:05;;;;;;;;;6.00;5.75;;;;;23.97;49.09;100408.97;5076539;27;45497;-81
2021/09/14 00:18:30;;;;;;;;;5.75;5.75;;;;;24.01;48.75;100417.44;5075051;28;45466;-83
2021/09/14 00:20:56;;;;;;;;;6.00;6.00;;;;;24.10;49.48;100424.25;5076366;27;45885;-82
2021/09/14 00:26:42;;;;;;;;;7.00;6.00;;;;;24.03;49.47;100396.63;5064964;28;45683;-81
2021/09/14 00:29:08;;;;;;;;;5.25;4.25;;;;;23.96;49.05;100398.47;5075973;27;45776;-82
2021/09/14 00:31:34;;;;;;;;;5.50;5.00;;;;;23.88;49.22;100387.94;5075735;27;45594;-83
2021/09/14 00:33:59;;;;;;;;;6.75;6.00;;;;;23.93;49.07;100397.00;5075827;27;46077;-82
2021/09/14 00:36:25;;;;;;;;;7.50;7.00;;;;;23.90;49.26;100399.28;5075926;27;45616;-82
2021/09/14 00:38:50;;;;;;;;;5.25;5.25;;;;;24.04;49.20;100417.00;5074775;28;45587;-82
2021/09/14 00:41:16;;;;;;;;;5.00;5.00;;;;;24.05;49.37;100424.84;5073993;28;48655;-81
2021/09/14 00:43:41;;;;;;;;;7.00;7.00;;;;;24.03;49.71;100416.19;5075909;27;45605;-81
2021/09/14 00:46:07;;;;;;;;;6.00;6.00;;;;;24.01;49.75;100418.25;5075978;27;45624;-82
2021/09/14 00:48:32;;;;;;;;;6.25;6.00;;;;;23.88;49.42;100394.13;5076081;27;45644;-81
2021/09/14 00:50:57;;;;;;;;;7.25;7.00;;;;;23.78;49.66;100381.13;5075816;27;45768;-81
2021/09/14 00:56:44;;;;;;;;;7.25;6.75;;;;;23.99;49.50;100401.56;5075449;28;45569;-81
2021/09/14 00:59:10;;;;;;;;;6.00;6.00;;;;;23.76;49.90;100371.63;5075570;27;45443;-81
2021/09/14 01:01:36;;;;;;;;;7.00;7.00;;;;;23.90;49.49;100405.44;5075154;27;45683;-81
2021/09/14 01:04:04;;;;;;;;;5.25;5.25;;;;;23.90;50.00;100413.47;5075054;27;46266;-81
2021/09/14 01:12:38;;;;;;;;;7.50;6.25;;;;;23.90;49.59;100423.34;5074703;28;45549;-80
2021/09/14 01:15:05;;;;;;;;;8.00;7.00;;;;;23.82;49.64;100405.63;5075528;27;45949;-83
2021/09/14 01:17:30;;;;;;;;;5.25;5.25;;;;;23.84;49.84;100416.94;5075390;27;45662;-81
2021/09/14 01:19:55;;;;;;;;;5.25;5.00;;;;;23.90;50.40;100426.03;5075833;27;45627;-83
2021/09/14 01:22:26;;;;;;;;;6.50;6.00;;;;;23.82;50.01;100421.66;5075555;27;45578;-80
2021/09/14 01:24:52;;;;;;;;;5.25;5.25;;;;;23.76;50.03;100406.41;5075528;27;46369;-83
2021/09/14 01:27:17;;;;;;;;;7.00;7.00;;;;;23.77;50.57;100413.41;5076171;27;46104;-81
2021/09/14 01:30:28;;;;;;;;;6.00;6.00;;;;;23.88;50.34;100436.94;5078230;27;45885;-82
2021/09/14 01:32:28;;;;;;;;;6.75;6.50;;;;;23.88;49.83;100430.75;5080715;27;46040;-80
2021/09/14 01:34:53;;;;;;;;;5.50;5.25;;;;;23.79;50.46;100424.75;5080912;27;45501;-81
2021/09/14 01:37:19;;;;;;;;;6.00;5.50;;;;;23.82;50.26;100435.03;5080208;27;45658;-83
2021/09/14 01:39:44;;;;;;;;;9.00;8.25;;;;;23.77;49.93;100432.97;5091199;27;45828;-82
2021/09/14 01:42:10;;;;;;;;;6.00;6.00;;;;;23.86;50.18;100456.91;5074713;27;46472;-81
2021/09/14 01:44:35;;;;;;;;;8.00;6.50;;;;;23.79;50.05;100454.19;5075004;27;45653;-80
2021/09/14 01:47:00;;;;;;;;;7.00;6.25;;;;;23.87;50.63;100474.59;5074937;27;45575;-81
2021/09/14 01:49:26;;;;;;;;;7.00;7.00;;;;;23.71;50.32;100449.81;5075245;27;45593;-82
2021/09/14 01:51:51;;;;;;;;;8.25;6.25;;;;;23.76;50.32;100475.97;5074345;27;45583;-84
2021/09/14 01:54:17;;;;;;;;;8.00;6.00;;;;;23.59;50.23;100454.06;5074465;27;46158;-81
2021/09/14 01:56:42;;;;;;;;;6.75;6.00;;;;;23.78;50.73;100488.16;5074662;28;45688;-82
2021/09/14 01:59:08;;;;;;;;;6.75;6.50;;;;;23.65;50.66;100471.19;5074717;27;45677;-81
2021/09/14 02:01:40;;;;;;;;;5.00;5.00;;;;;23.58;50.67;100451.59;5074474;27;45817;-81
2021/09/14 02:04:18;;;;;;;;;8.75;7.75;;;;;23.70;50.79;100480.25;5074492;27;46044;-82
2021/09/14 02:59:38;;;;;;;;;6.75;5.75;;;;;23.46;51.56;100375.63;5075171;28;46047;-80
2021/09/14 03:02:04;;;;;;;;;7.75;7.00;;;;;23.48;51.94;100382.44;5077194;27;45575;-81
2021/09/14 03:04:30;;;;;;;;;7.00;7.00;;;;;23.43;52.15;100377.63;5077998;28;45681;-80
2021/09/14 03:06:56;;;;;;;;;8.00;7.50;;;;;23.25;52.25;100344.41;5076940;28;46880;-81
2021/09/14 03:12:43;;;;;;;;;8.00;8.00;;;;;23.30;52.54;100358.84;5074741;28;45567;-81
2021/09/14 03:15:09;;;;;;;;;7.50;7.00;;;;;23.32;52.78;100367.47;5075483;28;45605;-82
2021/09/14 03:17:34;;;;;;;;;8.75;8.75;;;;;23.35;52.48;100377.81;5077204;27;46405;-81
2021/09/14 03:19:59;;;;;;;;;7.00;7.00;;;;;23.34;52.58;100386.00;5077222;27;46351;-84
2021/09/14 03:22:25;;;;;;;;;8.00;7.50;;;;;23.33;52.81;100379.00;5076981;27;45602;-81
2021/09/14 03:28:12;;;;;;;;;7.75;7.50;;;;;23.31;52.60;100387.25;5065605;28;45682;-80
2021/09/14 03:30:37;;;;;;;;;6.00;5.50;;;;;23.30;53.11;100374.91;5077215;27;46258;-81
2021/09/14 03:33:04;;;;;;;;;9.50;7.50;;;;;23.32;52.84;100364.81;5076701;27;45446;-83
2021/09/14 03:35:30;;;;;;;;;10.00;9.00;;;;;23.24;53.24;100343.59;5076722;27;45593;-82
2021/09/14 03:37:56;;;;;;;;;9.50;9.25;;;;;23.29;53.10;100351.84;5076165;28;46456;-81
2021/09/14 03:40:21;;;;;;;;;8.75;8.25;;;;;23.28;53.00;100349.34;5076565;27;46132;-82
2021/09/14 03:42:46;;;;;;;;;8.00;8.00;;;;;23.17;53.72;100328.53;5076920;27;45584;-81
2021/09/14 03:45:12;;;;;;;;;9.00;9.00;;;;;23.21;53.69;100343.19;5076916;27;45538;-82
2021/09/14 03:47:37;;;;;;;;;9.50;8.25;;;;;23.21;53.59;100343.19;5076557;27;46584;-81
2021/09/14 03:50:04;;;;;;;;;9.25;9.25;;;;;23.15;53.26;100317.22;5076493;27;45669;-85
2021/09/14 03:52:30;;;;;;;;;10.50;9.50;;;;;22.94;53.75;100291.41;5076157;28;45672;-82
2021/09/14 03:58:17;;;;;;;;;18.00;14.00;;;;;23.09;53.77;100307.31;5076208;28;45501;-81
2021/09/14 04:00:43;;;;;;;;;14.00;13.50;;;;;23.07;53.95;100312.84;5076530;27;46062;-81
2021/09/14 04:03:13;;;;;;;;;20.50;19.75;;;;;23.15;53.36;100325.25;5075469;27;45679;-84
2021/09/14 04:11:15;;;;;;;;;12.00;11.25;;;;;23.20;53.45;100331.66;5075891;28;45873;-82
2021/09/14 04:13:40;;;;;;;;;8.25;7.75;;;;;23.08;54.05;100314.50;5076352;27;45709;-83
2021/09/14 04:16:05;;;;;;;;;8.50;7.50;;;;;23.17;54.12;100340.03;5074762;28;45818;-83
2021/09/14 04:18:31;;;;;;;;;8.25;8.25;;;;;23.15;54.33;100346.63;5076181;27;45647;-82
2021/09/14 04:20:56;;;;;;;;;9.00;9.00;;;;;23.13;54.42;100343.31;5075820;28;46507;-82
2021/09/14 04:23:22;;;;;;;;;8.75;7.25;;;;;23.06;54.32;100340.59;5078930;27;45754;-82
2021/09/14 04:25:47;;;;;;;;;11.50;11.25;;;;;22.92;54.75;100312.97;5082627;27;45770;-80
2021/09/14 04:28:12;;;;;;;;;9.00;9.00;;;;;23.11;54.70;100342.69;5081073;27;45514;-82
2021/09/14 04:30:39;;;;;;;;;9.00;9.00;;;;;23.04;54.54;100328.47;5083558;27;45426;-81
2021/09/14 04:33:04;;;;;;;;;9.00;8.00;;;;;23.11;54.89;100340.00;5078247;27;45519;-84
2021/09/14 04:35:30;;;;;;;;;10.00;8.25;;;;;22.72;54.37;100268.47;5092824;27;45521;-81
2021/09/14 04:37:55;;;;;;;;;10.00;10.00;;;;;23.02;55.30;100294.75;5076866;27;45696;-80
2021/09/14 04:43:42;;;;;;;;;9.25;9.25;;;;;23.00;55.53;100243.31;5075195;28;45540;-81
2021/09/14 04:46:08;;;;;;;;;9.00;9.00;;;;;22.97;55.96;100218.84;5074081;28;45517;-82
2021/09/14 04:48:33;;;;;;;;;11.50;10.50;;;;;22.92;56.01;100210.63;5074994;27;47217;-81
2021/09/14 04:50:58;;;;;;;;;12.75;11.50;;;;;22.87;56.26;100210.38;5073590;28;47173;-83
2021/09/14 04:53:24;;;;;;;;;13.00;11.25;;;;;22.84;55.79;100216.94;5073785;28;45986;-81
2021/09/14 04:59:11;;;;;;;;;11.50;10.25;;;;;22.75;56.10;100236.00;5075300;28;45633;-81
2021/09/14 05:01:36;;;;;;;;;11.00;10.75;;;;;22.78;56.15;100249.78;5074978;27;45726;-81
2021/09/14 05:04:02;;;;;;;;;11.25;11.00;;;;;22.74;56.02;100235.19;5075357;27;45652;-81
2021/09/14 05:06:27;;;;;;;;;11.50;10.50;;;;;22.49;56.70;100199.25;5073954;28;45587;-83
2021/09/14 05:08:52;;;;;;;;;11.25;10.75;;;;;22.79;56.64;100253.28;5075698;27;45615;-81
2021/09/14 05:11:18;;;;;;;;;11.00;10.25;;;;;22.78;56.56;100246.31;5075314;27;46304;-81
2021/09/14 05:13:43;;;;;;;;;11.50;10.50;;;;;22.74;56.83;100261.91;5075263;27;45613;-82
2021/09/14 05:16:09;;;;;;;;;11.50;11.00;;;;;22.76;56.80;100280.41;5075411;27;45651;-81
2021/09/14 05:18:34;;;;;;;;;15.25;12.75;;;;;22.57;57.46;100241.81;5073919;28;45710;-83
2021/09/14 05:20:59;;;;;;;;;15.25;13.25;;;;;22.52;56.88;100250.41;5075354;27;45794;-80
2021/09/14 05:23:32;;;;;;;;;13.25;12.00;;;;;22.66;57.13;100295.91;5075150;27;45458;-79
2021/09/14 05:29:19;;;;;;;;;13.00;12.75;;;;;22.55;57.51;100294.63;5067415;28;45939;-83
2021/09/14 05:31:45;;;;;;;;;12.00;12.00;;;;;22.49;58.25;100292.72;5073306;28;47935;-82
2021/09/14 05:34:10;;;;;;;;;13.25;12.25;;;;;22.45;57.55;100286.94;5075340;27;45664;-82
2021/09/14 05:36:36;;;;;;;;;12.00;11.00;;;;;22.42;57.71;100298.00;5074917;27;45560;-81
2021/09/14 05:39:01;;;;;;;;;16.00;14.75;;;;;22.48;58.36;100312.41;5073124;28;48462;-81
2021/09/14 05:41:26;;;;;;;;;14.50;13.50;;;;;22.42;57.87;100324.69;5074594;27;46334;-81
2021/09/14 05:43:54;;;;;;;;;16.50;14.75;;;;;22.34;57.95;100319.50;5074731;27;45534;-81
2021/09/14 05:46:20;;;;;;;;;15.50;15.00;;;;;22.35;58.38;100337.16;5075033;27;45747;-81
2021/09/14 05:48:45;;;;;;;;;15.50;14.75;;;;;22.41;58.49;100367.59;5074706;27;45660;-81
2021/09/14 05:51:11;;;;;;;;;11.50;11.00;;;;;22.35;58.92;100355.03;5075058;27;45652;-80
2021/09/14 05:53:36;;;;;;;;;25.25;23.25;;;;;22.37;58.80;100375.19;5075002;27;45566;-81
2021/09/14 05:59:24;;;;;;;;;13.75;13.75;;;;;22.33;58.54;100407.78;5074441;28;45526;-80
2021/09/14 06:01:49;;;;;;;;;12.50;12.50;;;;;22.31;58.57;100407.97;5074597;27;45469;-82
2021/09/14 06:04:14;;;;;;;;;14.50;13.75;;;;;22.17;58.69;100400.84;5074818;27;45581;-82
2021/09/14 06:06:40;;;;;;;;;15.00;12.50;;;;;22.24;58.77;100414.28;5074827;27;45854;-84
2021/09/14 06:09:05;;;;;;;;;12.25;12.25;;;;;22.21;58.79;100419.97;5072340;28;47325;-81
2021/09/14 06:11:30;;;;;;;;;12.50;11.25;;;;;22.23;59.18;100424.13;5074293;27;45565;-83
2021/09/14 06:13:56;;;;;;;;;12.50;12.00;;;;;22.17;59.36;100427.53;5074221;27;45560;-82
2021/09/14 06:16:21;;;;;;;;;13.75;12.50;;;;;22.09;59.62;100412.47;5074155;27;45672;-82
2021/09/14 06:18:46;;;;;;;;;10.50;10.25;;;;;22.09;59.11;100409.78;5074078;27;45520;-84
2021/09/14 06:21:14;;;;;;;;;14.75;14.25;;;;;22.15;59.28;100426.88;5073399;27;45612;-84
2021/09/14 06:23:39;;;;;;;;;9.25;9.25;;;;;22.04;59.32;100414.88;5074044;27;45579;-84
2021/09/14 06:29:26;;;;;;;;;12.75;12.75;;;;;22.13;59.33;100424.41;5074380;28;46135;-76
2021/09/14 06:31:52;;;;;;;;;12.25;11.00;;;;;22.12;59.48;100422.78;5076687;28;46599;-77
2021/09/14 06:34:17;;;;;;;;;13.75;12.75;;;;;22.13;59.48;100426.28;5077240;27;45769;-77
2021/09/14 06:36:42;;;;;;;;;12.25;10.25;;;;;22.11;59.90;100429.13;5077393;27;45503;-78
2021/09/14 06:39:08;;;;;;;;;11.50;10.75;;;;;22.12;60.08;100435.28;5077146;27;46432;-77
2021/09/14 06:44:56;;;;;;;;;9.50;9.25;;;;;22.10;60.32;100464.00;5077575;28;45687;-82
2021/09/14 06:47:22;;;;;;;;;11.50;11.00;;;;;22.06;60.58;100465.38;5077538;27;45500;-79
2021/09/14 06:49:47;;;;;;;;;27.75;25.25;;;;;22.02;60.68;100467.63;5077356;28;45897;-78
2021/09/14 06:52:14;;;;;;;;;14.50;13.50;;;;;22.00;61.05;100466.97;5077229;28;45728;-76
2021/09/14 06:54:39;;;;;;;;;7.25;6.50;;;;;21.94;61.35;100458.84;5077316;28;45629;-78
2021/09/14 06:57:05;;;;;;;;;11.75;11.50;;;;;21.99;61.20;100467.13;5078018;27;45583;-78
2021/09/14 06:59:30;;;;;;;;;11.50;9.75;;;;;21.85;60.93;100447.44;5077638;28;45644;-79
2021/09/14 07:01:56;;;;;;;;;11.00;10.75;;;;;21.99;61.32;100475.13;5076878;27;45655;-79
2021/09/14 07:04:21;;;;;;;;;10.00;9.00;;;;;21.95;61.47;100468.53;5077185;27;46262;-83
2021/09/14 07:06:50;;;;;;;;;10.50;9.00;;;;;21.90;61.71;100468.22;5077707;28;45601;-79
2021/09/14 07:09:15;;;;;;;;;12.00;11.25;;;;;21.90;61.92;100468.22;5076940;27;45559;-80
2021/09/14 07:15:03;;;;;;;;;9.75;9.25;;;;;21.93;62.18;100423.31;5076593;28;45706;-79
2021/09/14 07:17:29;;;;;;;;;11.25;10.75;;;;;21.87;62.58;100383.22;5076897;27;45559;-79
2021/09/14 07:19:55;;;;;;;;;11.25;9.75;;;;;21.85;62.74;100385.25;5076922;28;45633;-79
2021/09/14 07:22:20;;;;;;;;;14.25;10.50;;;;;21.72;63.06;100369.91;5076744;27;45855;-78
2021/09/14 07:24:46;;;;;;;;;11.75;10.00;;;;;21.67;62.87;100372.31;5076739;27;45824;-79
2021/09/14 07:27:11;;;;;;;;;10.50;10.25;;;;;21.66;63.34;100370.66;5076735;28;45529;-79
2021/09/14 07:29:37;;;;;;;;;10.75;10.75;;;;;21.71;63.03;100390.44;5076328;27;45547;-79
2021/09/14 07:32:05;;;;;;;;;13.25;12.00;;;;;21.65;63.27;100385.84;5076410;27;46083;-79
2021/09/14 07:34:32;;;;;;;;;13.25;12.00;;;;;21.58;63.14;100376.13;5076532;27;45520;-78
2021/09/14 07:36:58;;;;;;;;;9.25;9.00;;;;;21.72;63.61;100399.25;5075575;27;45690;-78
2021/09/14 07:39:23;;;;;;;;;10.75;10.25;;;;;21.68;63.21;100395.31;5076564;27;46382;-79
2021/09/14 07:45:10;;;;;;;;;9.75;9.00;;;;;21.73;63.75;100392.91;5076177;28;45523;-79
2021/09/14 07:47:36;;;;;;;;;10.75;9.50;;;;;21.74;63.51;100392.75;5076750;28;45832;-79
2021/09/14 07:50:03;;;;;;;;;10.00;9.25;;;;;21.75;64.04;100406.91;5076241;27;46563;-78
2021/09/14 07:52:28;;;;;;;;;9.50;8.50;;;;;21.77;63.79;100421.69;5075773;27;46004;-79
2021/09/14 07:54:53;;;;;;;;;13.25;10.00;;;;;21.80;63.72;100422.34;5076315;27;45603;-79
2021/09/14 07:57:19;;;;;;;;;12.00;9.75;;;;;21.80;64.21;100420.50;5076077;27;45589;-79
2021/09/14 07:59:44;;;;;;;;;8.50;8.50;;;;;21.79;63.84;100410.84;5075968;27;46209;-78
2021/09/14 08:02:09;;;;;;;;;11.75;10.75;;;;;21.83;63.79;100408.63;5076082;27;46527;-79
2021/09/14 08:04:35;;;;;;;;;10.00;10.00;;;;;21.83;64.21;100405.97;5076171;27;45567;-78
2021/09/14 08:07:01;;;;;;;;;9.25;9.25;;;;;21.92;64.38;100419.00;5076082;27;45544;-78
2021/09/14 08:09:29;;;;;;;;;11.00;11.00;;;;;21.94;64.00;100405.47;5076188;27;45536;-79
2021/09/14 08:15:16;;;;;;;;;13.25;11.25;;;;;21.99;64.56;100421.78;5075578;28;45657;-79
2021/09/14 08:17:41;;;;;;;;;10.75;10.00;;;;;21.95;64.30;100418.66;5075885;27;45822;-77
2021/09/14 08:20:07;;;;;;;;;11.00;11.00;;;;;22.04;64.33;100443.38;5075811;27;46161;-78
2021/09/14 08:22:33;;;;;;;;;11.75;11.00;;;;;22.03;65.00;100449.72;5075606;27;45624;-78
2021/09/14 08:24:58;;;;;;;;;11.75;11.75;;;;;22.04;64.70;100454.06;5075904;27;45558;-78
2021/09/14 08:30:45;;;;;;;;;11.25;10.25;;;;;22.09;64.43;100443.66;5064460;28;45806;-79
2021/09/14 08:33:11;;;;;;;;;10.50;10.50;;;;;22.10;64.63;100445.31;5077761;27;45715;-79
2021/09/14 08:35:36;;;;;;;;;12.00;11.00;;;;;22.12;64.41;100443.28;5077792;27;45545;-78
2021/09/14 08:38:02;;;;;;;;;12.50;10.25;;;;;22.13;65.00;100442.28;5075827;28;45823;-77
2021/09/14 08:40:28;;;;;;;;;14.00;13.00;;;;;22.15;64.67;100438.41;5077698;27;46124;-77
2021/09/14 08:42:55;;;;;;;;;12.00;11.00;;;;;22.10;65.25;100438.13;5076351;27;45910;-78
2021/09/14 08:45:21;;;;;;;;;11.25;10.25;;;;;22.05;64.66;100435.19;5075861;27;45665;-79
2021/09/14 08:47:47;;;;;;;;;11.25;11.25;;;;;22.22;64.78;100465.16;5075588;27;45629;-78
2021/09/14 08:50:13;;;;;;;;;12.00;11.75;;;;;22.17;64.99;100472.91;5075184;27;46221;-80
2021/09/14 08:52:38;;;;;;;;;12.50;12.00;;;;;22.22;64.83;100486.53;5075335;28;45857;-78
2021/09/14 08:55:04;;;;;;;;;14.00;12.25;;;;;22.23;65.37;100479.34;5075324;27;45537;-79
2021/09/14 09:00:51;;;;;;;;;13.00;11.25;;;;;22.19;65.54;100468.19;5074858;28;46017;-79
2021/09/14 09:03:26;;;;;;;;;15.25;15.25;;;;;22.24;64.91;100473.78;5075076;27;45972;-79
2021/09/14 09:05:51;;;;;;;;;14.75;13.50;;;;;22.22;65.53;100459.84;5075270;27;45761;-79
2021/09/14 09:08:30;;;;;;;;;15.00;13.50;;;;;22.26;65.18;100465.59;5075346;27;45767;-78
2021/09/14 09:11:00;;;;;;;;;15.50;14.00;;;;;22.32;65.10;100467.53;5074862;27;46584;-78
2021/09/14 09:13:31;;;;;;;;;13.50;13.25;;;;;22.34;64.98;100466.34;5075087;28;46088;-79
2021/09/14 09:15:57;;;;;;;;;14.00;11.25;;;;;22.38;65.67;100466.78;5075137;27;45729;-78
2021/09/14 09:18:22;;;;;;;;;16.75;16.00;;;;;22.41;64.85;100469.06;5075104;27;45520;-79
2021/09/14 09:20:49;;;;;;;;;15.00;14.25;;;;;22.44;65.61;100466.03;5074952;27;45497;-78
2021/09/14 09:23:24;;;;;;;;;13.50;11.50;;;;;22.47;65.37;100454.97;5074837;27;45713;-77
2021/09/14 09:25:50;;;;;;;;;12.50;12.25;;;;;22.49;64.92;100450.25;5074940;27;45722;-79
2021/09/14 09:28:21;;;;;;;;;11.75;11.50;;;;;22.52;65.68;100448.03;5075165;27;45784;-79
2021/09/14 09:31:10;;;;;;;;;14.75;12.00;;;;;22.56;65.07;100462.66;5074391;27;45640;-77
2021/09/14 09:33:37;;;;;;;;;16.25;13.50;;;;;22.59;65.68;100470.28;5074843;28;46174;-78
2021/09/14 09:36:07;;;;;;;;;15.75;13.25;;;;;22.63;65.78;100476.06;5074919;28;45622;-79
2021/09/14 09:38:47;;;;;;;;;13.75;12.50;;;;;22.67;65.69;100468.53;5074768;27;45501;-80
2021/09/14 09:41:21;;;;;;;;;14.50;13.00;;;;;22.69;65.28;100467.31;5074586;27;46382;-80
2021/09/14 09:43:48;;;;;;;;;15.00;11.50;;;;;22.72;65.74;100468.81;5074799;27;45691;-79
2021/09/14 09:46:21;;;;;;;;;13.00;13.00;;;;;22.77;65.40;100461.88;5074672;27;45752;-78
2021/09/14 09:48:48;;;;;;;;;16.50;14.50;;;;;22.80;65.44;100460.66;5073431;28;45597;-78
2021/09/14 09:51:14;;;;;;;;;20.00;14.00;;;;;22.84;65.60;100452.06;5074130;28;45519;-78
2021/09/14 09:53:40;;;;;;;;;13.00;12.00;;;;;22.84;65.30;100446.72;5074581;27;45910;-79
2021/09/14 09:56:07;;;;;;;;;13.00;12.25;;;;;22.90;65.21;100445.13;5074768;27;45601;-79
2021/09/14 09:58:33;;;;;;;;;12.50;12.00;;;;;22.92;65.66;100441.25;5074377;27;45861;-79
2021/09/14 10:01:14;;;;;;;;;15.50;14.00;;;;;22.97;65.70;100446.00;5076067;28;45610;-79
2021/09/14 10:04:03;;;;;;;;;13.75;13.50;;;;;23.00;65.82;100448.28;5078028;27;46525;-79
2021/09/14 10:06:31;;;;;;;;;13.50;12.75;;;;;23.04;65.40;100451.41;5078057;27;45769;-79
2021/09/14 10:08:57;;;;;;;;;13.75;13.25;;;;;23.07;65.44;100449.16;5078810;27;45572;-78
2021/09/14 10:11:27;;;;;;;;;15.25;14.75;;;;;23.09;65.55;100448.97;5083330;27;46571;-78
2021/09/14 10:14:13;;;;;;;;;13.75;12.25;;;;;23.10;65.51;100456.00;5082980;27;46987;-79
2021/09/14 10:16:45;;;;;;;;;15.25;13.75;;;;;23.03;65.43;100442.56;5082315;27;45773;-78
2021/09/14 10:19:17;;;;;;;;;13.25;13.00;;;;;23.12;65.27;100464.63;5081471;27;45508;-79
2021/09/14 10:21:46;;;;;;;;;18.50;16.50;;;;;23.15;65.55;100461.56;5078299;28;45540;-79
2021/09/14 10:24:22;;;;;;;;;16.00;15.75;;;;;23.18;65.26;100463.84;5078410;28;45888;-79
2021/09/14 10:26:49;;;;;;;;;12.00;11.50;;;;;23.18;64.85;100450.47;5077984;27;45580;-79
2021/09/14 10:29:17;;;;;;;;;14.50;13.25;;;;;23.28;65.56;100462.47;5077961;27;45890;-77
2021/09/14 10:31:43;;;;;;;;;14.25;14.00;;;;;23.28;64.67;100459.81;5077086;27;46363;-79
2021/09/14 10:34:13;;;;;;;;;14.50;14.00;;;;;23.32;65.02;100454.91;5077858;27;46618;-79
2021/09/14 10:36:42;;;;;;;;;15.00;14.25;;;;;23.33;65.05;100456.53;5077390;27;45679;-78
2021/09/14 10:39:21;;;;;;;;;14.50;13.00;;;;;23.38;65.49;100464.81;5077527;27;45782;-79
2021/09/14 10:41:49;;;;;;;;;19.25;14.00;;;;;23.44;65.11;100466.69;5077055;27;46695;-79
2021/09/14 10:44:30;;;;;;;;;15.75;14.75;;;;;23.39;65.16;100453.09;5077153;27;47126;-77
2021/09/14 10:47:38;;;;;;;;;18.00;15.25;;;;;23.51;65.13;100464.09;5077455;27;45717;-78
2021/09/14 10:50:05;;;;;;;;;16.00;12.50;;;;;23.51;64.85;100458.75;5075133;28;45702;-78
2021/09/14 10:52:30;;;;;;;;;13.25;12.00;;;;;23.53;64.95;100462.91;5075221;28;45704;-80
2021/09/14 10:54:56;;;;;;;;;12.00;11.75;;;;;23.48;64.91;100440.44;5075289;28;45602;-78
2021/09/14 10:57:31;;;;;;;;;13.50;13.00;;;;;23.57;64.86;100440.09;5058282;28;45708;-79
2021/09/14 10:59:57;;;;;;;;;13.00;12.00;;;;;23.60;64.83;100447.69;5075449;28;45905;-77
2021/09/14 11:02:25;;;;;;;;;12.75;12.75;;;;;23.64;64.55;100456.19;5074760;28;45657;-78
2021/09/14 11:04:51;;;;;;;;;13.50;11.50;;;;;23.71;64.71;100454.34;5075087;28;45908;-77
2021/09/14 11:07:21;;;;;;;;;13.75;12.75;;;;;23.73;64.58;100449.63;5074968;28;45531;-78
2021/09/14 11:09:53;;;;;;;;;14.25;12.75;;;;;23.73;64.87;100445.09;5075211;28;45742;-79
2021/09/14 11:12:20;;;;;;;;;12.00;12.00;;;;;23.72;64.34;100430.06;5074757;28;45747;-78
2021/09/14 11:14:46;;;;;;;;;11.75;11.00;;;;;23.70;64.00;100420.56;5074936;28;46347;-78
2021/09/14 11:17:26;;;;;;;;;12.75;12.75;;;;;23.89;64.07;100445.78;5074970;28;45749;-79
2021/09/14 11:19:52;;;;;;;;;13.00;12.00;;;;;23.92;64.70;100448.06;5075715;28;45730;-78
2021/09/14 11:22:33;;;;;;;;;15.00;13.00;;;;;23.93;64.57;100439.84;5077861;27;45582;-79
2021/09/14 11:24:59;;;;;;;;;14.50;13.00;;;;;24.01;64.53;100446.88;5078125;27;46138;-78
2021/09/14 11:27:25;;;;;;;;;13.00;10.50;;;;;24.04;63.98;100444.63;5077939;27;45561;-80
2021/09/14 11:29:51;;;;;;;;;12.50;12.50;;;;;24.09;64.17;100452.03;5077797;27;45502;-79
2021/09/14 11:32:16;;;;;;;;;11.75;10.00;;;;;24.10;64.24;100443.81;5077163;27;47312;-79
2021/09/14 11:34:42;;;;;;;;;11.00;11.00;;;;;24.18;63.56;100448.22;5077098;28;45626;-78
2021/09/14 11:37:08;;;;;;;;;11.75;10.25;;;;;24.21;63.85;100437.09;5076828;27;45823;-81
2021/09/14 11:39:38;;;;;;;;;11.00;10.25;;;;;24.28;63.50;100437.94;5077695;27;45550;-79
2021/09/14 11:42:03;;;;;;;;;11.50;10.50;;;;;24.35;63.66;100438.75;5078569;27;46453;-79
2021/09/14 11:44:29;;;;;;;;;12.00;11.75;;;;;24.40;63.54;100446.22;5079354;28;46623;-80
2021/09/14 11:47:05;;;;;;;;;9.25;9.25;;;;;24.49;63.64;100447.66;5077539;27;45570;-79
2021/09/14 11:49:30;;;;;;;;;16.00;15.00;;;;;24.49;63.81;100436.94;5076835;27;45616;-79
2021/09/14 11:52:01;;;;;;;;;13.75;12.00;;;;;24.59;63.31;100450.75;5076385;27;46020;-80
2021/09/14 11:54:34;;;;;;;;;10.25;9.25;;;;;24.62;63.11;100439.63;5076449;27;46953;-80
2021/09/14 11:57:01;;;;;;;;;14.00;11.25;;;;;24.64;62.82;100443.75;5076678;27;45651;-79
2021/09/14 11:59:32;;;;;;;;;11.00;10.75;;;;;24.65;62.59;100426.66;5076775;27;45561;-80
2021/09/14 12:01:58;;;;;;;;;10.25;9.75;;;;;24.73;62.79;100435.50;5076080;27;46367;-78
2021/09/14 12:04:23;;;;;;;;;10.50;10.50;;;;;24.74;62.37;100415.72;5081086;27;45792;-80
2021/09/14 12:06:53;;;;;;;;;11.25;10.75;;;;;24.83;62.26;100436.75;5083218;27;45639;-80
2021/09/14 12:09:20;;;;;;;;;10.00;9.25;;;;;24.89;62.17;100427.94;5082674;27;45632;-78
2021/09/14 12:11:45;;;;;;;;;11.75;10.00;;;;;24.92;62.23;100413.28;5081426;28;46958;-79
2021/09/14 12:14:18;;;;;;;;;12.00;11.50;;;;;24.92;61.99;100400.72;5076955;27;45997;-79
2021/09/14 12:16:44;;;;;;;;;9.25;8.75;;;;;25.05;61.80;100422.13;5076518;27;45447;-79
2021/09/14 12:19:12;;;;;;;;;10.00;10.00;;;;;25.12;61.59;100429.34;5076684;27;45529;-80
2021/09/14 12:21:39;;;;;;;;;8.00;7.75;;;;;25.17;61.63;100418.81;5075948;27;46534;-79
2021/09/14 12:24:04;;;;;;;;;8.75;8.00;;;;;25.22;61.23;100410.97;5075653;27;46375;-79
2021/09/14 12:26:39;;;;;;;;;9.50;8.00;;;;;25.22;60.98;100408.28;5076443;27;45494;-80
2021/09/14 12:29:06;;;;;;;;;7.00;7.00;;;;;25.24;60.65;100399.03;5076052;27;45561;-80
2021/09/14 12:31:31;;;;;;;;;8.00;5.00;;;;;25.39;60.38;100412.19;5075720;27;45796;-78
2021/09/14 12:33:57;;;;;;;;;9.00;8.00;;;;;25.44;60.19;100407.00;5076154;28;45681;-80
2021/09/14 12:36:23;;;;;;;;;9.50;8.75;;;;;25.50;60.15;100406.16;5075860;27;45657;-79
2021/09/14 12:38:48;;;;;;;;;10.00;8.00;;;;;25.53;59.98;100399.56;5075785;28;45699;-79
2021/09/14 12:41:15;;;;;;;;;7.75;6.00;;;;;25.60;59.80;100403.06;5075174;28;47482;-80
2021/09/14 12:47:02;;;;;;;;;7.25;6.75;;;;;25.72;59.18;100409.44;5075558;28;45606;-80
2021/09/14 12:49:27;;;;;;;;;7.50;7.00;;;;;25.74;59.04;100396.63;5075761;27;45729;-81
2021/09/14 12:51:53;;;;;;;;;6.75;6.50;;;;;25.81;58.67;100402.78;5075617;27;46206;-80
2021/09/14 12:54:19;;;;;;;;;7.75;7.00;;;;;25.88;58.55;100407.09;5075693;27;45801;-80
2021/09/14 12:56:44;;;;;;;;;7.00;7.00;;;;;25.91;58.72;100400.50;5075397;28;45421;-80
2021/09/14 12:59:10;;;;;;;;;9.00;8.00;;;;;25.92;58.49;100394.06;5075651;27;45442;-80
2021/09/14 13:01:35;;;;;;;;;6.00;6.00;;;;;26.02;57.83;100404.38;5074862;27;45903;-80
2021/09/14 13:04:00;;;;;;;;;7.75;7.00;;;;;26.03;57.10;100400.63;5075318;27;45545;-80
2021/09/14 13:06:26;;;;;;;;;7.25;7.00;;;;;26.07;56.93;100409.91;5075683;27;45554;-80
2021/09/14 13:08:51;;;;;;;;;8.00;7.00;;;;;26.09;56.47;100407.81;5075480;28;45557;-79
2021/09/14 13:11:17;;;;;;;;;8.00;7.25;;;;;26.04;56.68;100388.84;5075088;27;45596;-80
2021/09/14 13:17:04;;;;;;;;;7.50;5.75;;;;;26.22;55.71;100405.94;5074990;28;45478;-80
2021/09/14 13:19:29;;;;;;;;;7.00;4.75;;;;;26.25;55.62;100401.97;5075199;27;45589;-79
2021/09/14 13:21:54;;;;;;;;;6.00;6.00;;;;;26.31;55.07;100401.09;5074706;27;46319;-79
2021/09/14 13:24:20;;;;;;;;;7.75;6.00;;;;;26.32;55.07;100386.63;5075052;27;46078;-79